sensor_id;sensor_type;location;lat;lon;timestamp;temperature;humidity
9103;DHT22;4587;51.434;6.788;2023-02-20T00:02:05;6.70;99.90
9103;DHT22;4587;51.434;6.788;2023-02-20T00:04:30;6.50;99.90
9103;DHT22;4587;51.434;6.788;2023-02-20T00:06:56;6.60;99.90
9103;DHT22;4587;51.434;6.788;2023-02-20T00:09:21;6.60;99.90
9103;DHT22;4587;51.434;6.788;2023-02-20T00:11:47;6.60;99.90
9103;DHT22;4587;51.434;6.788;2023-02-20T00:14:13;6.60;99.90
9103;DHT22;4587;51.434;6.788;2023-02-20T00:16:38;6.70;99.90
9103;DHT22;4587;51.434;6.788;2023-02-20T00:19:04;6.70;99.90
9103;DHT22;4587;51.434;6.788;2023-02-20T00:21:30;6.70;99.90
9103;DHT22;4587;51.434;6.788;2023-02-20T00:23:56;6.80;99.90
9103;DHT22;4587;51.434;6.788;2023-02-20T00:26:21;6.90;99.90
9103;DHT22;4587;51.434;6.788;2023-02-20T00:28:47;6.90;99.90
9103;DHT22;4587;51.434;6.788;2023-02-20T00:31:15;6.90;99.90
9103;DHT22;4587;51.434;6.788;2023-02-20T00:33:41;7.00;99.90
9103;DHT22;4587;51.434;6.788;2023-02-20T00:36:07;6.90;99.90
9103;DHT22;4587;51.434;6.788;2023-02-20T00:38:33;6.90;99.90
9103;DHT22;4587;51.434;6.788;2023-02-20T00:40:58;6.90;99.90
9103;DHT22;4587;51.434;6.788;2023-02-20T00:43:24;7.10;99.90
9103;DHT22;4587;51.434;6.788;2023-02-20T00:45:49;7.10;99.90
9103;DHT22;4587;51.434;6.788;2023-02-20T00:48:15;7.10;99.90
9103;DHT22;4587;51.434;6.788;2023-02-20T00:50:40;7.10;99.90
9103;DHT22;4587;51.434;6.788;2023-02-20T00:53:06;7.10;99.90
9103;DHT22;4587;51.434;6.788;2023-02-20T00:55:31;7.10;99.90
9103;DHT22;4587;51.434;6.788;2023-02-20T00:57:57;7.10;99.90
9103;DHT22;4587;51.434;6.788;2023-02-20T01:00:28;7.20;99.90
9103;DHT22;4587;51.434;6.788;2023-02-20T01:02:54;7.20;99.90
9103;DHT22;4587;51.434;6.788;2023-02-20T01:05:20;7.20;99.90
9103;DHT22;4587;51.434;6.788;2023-02-20T01:07:45;7.10;99.90
9103;DHT22;4587;51.434;6.788;2023-02-20T01:10:12;7.20;99.90
9103;DHT22;4587;51.434;6.788;2023-02-20T01:12:38;7.30;99.90
9103;DHT22;4587;51.434;6.788;2023-02-20T01:15:05;7.30;99.90
9103;DHT22;4587;51.434;6.788;2023-02-20T01:17:30;7.30;99.90
9103;DHT22;4587;51.434;6.788;2023-02-20T01:19:56;7.40;99.90
9103;DHT22;4587;51.434;6.788;2023-02-20T01:22:22;7.30;99.90
9103;DHT22;4587;51.434;6.788;2023-02-20T01:24:47;7.30;99.90
9103;DHT22;4587;51.434;6.788;2023-02-20T01:27:13;7.20;99.90
9103;DHT22;4587;51.434;6.788;2023-02-20T01:29:38;7.10;99.90
9103;DHT22;4587;51.434;6.788;2023-02-20T01:32:04;7.10;99.90
9103;DHT22;4587;51.434;6.788;2023-02-20T01:34:30;7.10;99.90
9103;DHT22;4587;51.434;6.788;2023-02-20T01:36:55;7.20;99.90
9103;DHT22;4587;51.434;6.788;2023-02-20T01:39:24;7.20;99.90
9103;DHT22;4587;51.434;6.788;2023-02-20T01:41:53;7.10;99.90
9103;DHT22;4587;51.434;6.788;2023-02-20T01:44:22;7.10;99.90
9103;DHT22;4587;51.434;6.788;2023-02-20T01:46:59;7.10;99.90
9103;DHT22;4587;51.434;6.788;2023-02-20T01:52:26;7.20;99.90
9103;DHT22;4587;51.434;6.788;2023-02-20T01:55:57;7.20;99.90
9103;DHT22;4587;51.434;6.788;2023-02-20T01:58:11;7.10;99.90
9103;DHT22;4587;51.434;6.788;2023-02-20T02:00:39;7.20;99.90
9103;DHT22;4587;51.434;6.788;2023-02-20T02:03:10;7.30;99.90
9103;DHT22;4587;51.434;6.788;2023-02-20T02:05:39;7.30;99.90
9103;DHT22;4587;51.434;6.788;2023-02-20T02:08:07;7.20;99.90
9103;DHT22;4587;51.434;6.788;2023-02-20T02:10:55;7.20;99.90
9103;DHT22;4587;51.434;6.788;2023-02-20T02:13:21;7.20;99.90
9103;DHT22;4587;51.434;6.788;2023-02-20T02:15:51;7.20;99.90
9103;DHT22;4587;51.434;6.788;2023-02-20T02:23:53;7.00;99.90
9103;DHT22;4587;51.434;6.788;2023-02-20T02:37:15;6.80;99.90
9103;DHT22;4587;51.434;6.788;2023-02-20T02:40:08;6.80;99.90
9103;DHT22;4587;51.434;6.788;2023-02-20T02:42:51;6.80;99.90
9103;DHT22;4587;51.434;6.788;2023-02-20T02:46:06;6.90;99.90
9103;DHT22;4587;51.434;6.788;2023-02-20T02:48:15;6.90;99.90
9103;DHT22;4587;51.434;6.788;2023-02-20T02:50:45;6.90;99.90
9103;DHT22;4587;51.434;6.788;2023-02-20T02:53:13;7.00;99.90
9103;DHT22;4587;51.434;6.788;2023-02-20T02:55:38;6.90;99.90
9103;DHT22;4587;51.434;6.788;2023-02-20T02:58:04;6.80;99.90
9103;DHT22;4587;51.434;6.788;2023-02-20T03:03:12;6.80;99.90
9103;DHT22;4587;51.434;6.788;2023-02-20T03:08:39;6.90;99.90
9103;DHT22;4587;51.434;6.788;2023-02-20T03:11:07;6.90;99.90
9103;DHT22;4587;51.434;6.788;2023-02-20T03:13:56;6.80;99.90
9103;DHT22;4587;51.434;6.788;2023-02-20T03:19:10;6.80;99.90
9103;DHT22;4587;51.434;6.788;2023-02-20T03:21:43;6.90;99.90
9103;DHT22;4587;51.434;6.788;2023-02-20T03:24:12;6.90;99.90
9103;DHT22;4587;51.434;6.788;2023-02-20T03:26:40;6.90;99.90
9103;DHT22;4587;51.434;6.788;2023-02-20T03:29:12;6.90;99.90
9103;DHT22;4587;51.434;6.788;2023-02-20T03:31:54;7.10;99.90
9103;DHT22;4587;51.434;6.788;2023-02-20T03:34:41;7.10;99.90
9103;DHT22;4587;51.434;6.788;2023-02-20T03:37:29;7.00;99.90
9103;DHT22;4587;51.434;6.788;2023-02-20T03:40:15;7.00;99.90
9103;DHT22;4587;51.434;6.788;2023-02-20T03:43:04;7.00;99.90
9103;DHT22;4587;51.434;6.788;2023-02-20T03:45:47;7.00;99.90
9103;DHT22;4587;51.434;6.788;2023-02-20T03:48:23;6.90;99.90
9103;DHT22;4587;51.434;6.788;2023-02-20T03:50:50;6.80;99.90
9103;DHT22;4587;51.434;6.788;2023-02-20T03:53:35;6.90;99.90
9103;DHT22;4587;51.434;6.788;2023-02-20T03:56:03;6.90;99.90
9103;DHT22;4587;51.434;6.788;2023-02-20T03:58:33;6.80;99.90
9103;DHT22;4587;51.434;6.788;2023-02-20T04:01:01;6.80;99.90
9103;DHT22;4587;51.434;6.788;2023-02-20T04:03:32;6.70;99.90
9103;DHT22;4587;51.434;6.788;2023-02-20T04:06:01;6.60;99.90
9103;DHT22;4587;51.434;6.788;2023-02-20T04:08:30;6.60;99.90
9103;DHT22;4587;51.434;6.788;2023-02-20T04:11:16;6.70;99.90
9103;DHT22;4587;51.434;6.788;2023-02-20T04:13:43;6.80;99.90
9103;DHT22;4587;51.434;6.788;2023-02-20T04:16:11;6.90;99.90
9103;DHT22;4587;51.434;6.788;2023-02-20T04:18:38;6.80;99.90
9103;DHT22;4587;51.434;6.788;2023-02-20T04:21:08;6.80;99.90
9103;DHT22;4587;51.434;6.788;2023-02-20T04:23:40;6.70;99.90
9103;DHT22;4587;51.434;6.788;2023-02-20T04:26:11;6.80;99.90
9103;DHT22;4587;51.434;6.788;2023-02-20T04:28:39;6.70;99.90
9103;DHT22;4587;51.434;6.788;2023-02-20T04:31:05;6.80;99.90
9103;DHT22;4587;51.434;6.788;2023-02-20T04:33:30;6.80;99.90
9103;DHT22;4587;51.434;6.788;2023-02-20T04:35:56;6.80;99.90
9103;DHT22;4587;51.434;6.788;2023-02-20T04:38:23;6.70;99.90
9103;DHT22;4587;51.434;6.788;2023-02-20T04:40:48;6.60;99.90
9103;DHT22;4587;51.434;6.788;2023-02-20T04:43:15;6.60;99.90
9103;DHT22;4587;51.434;6.788;2023-02-20T04:45:40;6.60;99.90
9103;DHT22;4587;51.434;6.788;2023-02-20T04:48:06;6.60;99.90
9103;DHT22;4587;51.434;6.788;2023-02-20T04:50:32;6.50;99.90
9103;DHT22;4587;51.434;6.788;2023-02-20T04:52:59;6.50;99.90
9103;DHT22;4587;51.434;6.788;2023-02-20T04:55:25;6.50;99.90
9103;DHT22;4587;51.434;6.788;2023-02-20T04:57:51;6.50;99.90
9103;DHT22;4587;51.434;6.788;2023-02-20T05:00:18;6.50;99.90
9103;DHT22;4587;51.434;6.788;2023-02-20T05:02:44;6.50;99.90
9103;DHT22;4587;51.434;6.788;2023-02-20T05:05:25;6.60;99.90
9103;DHT22;4587;51.434;6.788;2023-02-20T05:07:59;6.60;99.90
9103;DHT22;4587;51.434;6.788;2023-02-20T05:10:26;6.60;99.90
9103;DHT22;4587;51.434;6.788;2023-02-20T05:12:52;6.70;99.90
9103;DHT22;4587;51.434;6.788;2023-02-20T05:15:19;6.70;99.90
9103;DHT22;4587;51.434;6.788;2023-02-20T05:17:45;6.80;99.90
9103;DHT22;4587;51.434;6.788;2023-02-20T05:20:12;7.00;99.90
9103;DHT22;4587;51.434;6.788;2023-02-20T05:22:38;7.10;99.90
9103;DHT22;4587;51.434;6.788;2023-02-20T05:25:04;7.10;99.90
9103;DHT22;4587;51.434;6.788;2023-02-20T05:27:30;7.20;99.90
9103;DHT22;4587;51.434;6.788;2023-02-20T05:29:57;7.30;99.90
9103;DHT22;4587;51.434;6.788;2023-02-20T05:32:25;7.30;99.90
9103;DHT22;4587;51.434;6.788;2023-02-20T05:34:51;7.30;99.90
9103;DHT22;4587;51.434;6.788;2023-02-20T05:37:18;7.30;99.90
9103;DHT22;4587;51.434;6.788;2023-02-20T05:39:45;7.30;99.90
9103;DHT22;4587;51.434;6.788;2023-02-20T05:42:10;7.30;99.90
9103;DHT22;4587;51.434;6.788;2023-02-20T05:44:36;7.30;99.90
9103;DHT22;4587;51.434;6.788;2023-02-20T05:47:02;7.30;99.90
9103;DHT22;4587;51.434;6.788;2023-02-20T05:49:28;7.40;99.90
9103;DHT22;4587;51.434;6.788;2023-02-20T05:51:57;7.30;99.90
9103;DHT22;4587;51.434;6.788;2023-02-20T05:54:23;7.30;99.90
9103;DHT22;4587;51.434;6.788;2023-02-20T05:56:49;7.40;99.90
9103;DHT22;4587;51.434;6.788;2023-02-20T05:59:17;7.30;99.90
9103;DHT22;4587;51.434;6.788;2023-02-20T06:01:44;7.30;99.90
9103;DHT22;4587;51.434;6.788;2023-02-20T06:04:10;7.40;99.90
9103;DHT22;4587;51.434;6.788;2023-02-20T06:06:37;7.30;99.90
9103;DHT22;4587;51.434;6.788;2023-02-20T06:09:05;7.30;99.90
9103;DHT22;4587;51.434;6.788;2023-02-20T06:11:38;7.30;99.90
9103;DHT22;4587;51.434;6.788;2023-02-20T06:14:05;7.40;99.90
9103;DHT22;4587;51.434;6.788;2023-02-20T06:16:31;7.40;99.90
9103;DHT22;4587;51.434;6.788;2023-02-20T06:18:57;7.40;99.90
9103;DHT22;4587;51.434;6.788;2023-02-20T06:21:25;7.30;99.90
9103;DHT22;4587;51.434;6.788;2023-02-20T06:23:52;7.40;99.90
9103;DHT22;4587;51.434;6.788;2023-02-20T06:26:19;7.30;99.90
9103;DHT22;4587;51.434;6.788;2023-02-20T06:28:45;7.40;99.90
9103;DHT22;4587;51.434;6.788;2023-02-20T06:31:23;7.40;99.90
9103;DHT22;4587;51.434;6.788;2023-02-20T06:33:48;7.30;99.90
9103;DHT22;4587;51.434;6.788;2023-02-20T06:36:40;7.40;99.90
9103;DHT22;4587;51.434;6.788;2023-02-20T06:39:08;7.30;99.90
9103;DHT22;4587;51.434;6.788;2023-02-20T06:41:34;7.40;99.90
9103;DHT22;4587;51.434;6.788;2023-02-20T06:44:00;7.40;99.90
9103;DHT22;4587;51.434;6.788;2023-02-20T06:46:26;7.40;99.90
9103;DHT22;4587;51.434;6.788;2023-02-20T06:48:54;7.40;99.90
9103;DHT22;4587;51.434;6.788;2023-02-20T06:51:23;7.40;99.90
9103;DHT22;4587;51.434;6.788;2023-02-20T06:53:49;7.40;99.90
9103;DHT22;4587;51.434;6.788;2023-02-20T06:56:17;7.30;99.90
9103;DHT22;4587;51.434;6.788;2023-02-20T06:58:49;7.30;99.90
9103;DHT22;4587;51.434;6.788;2023-02-20T07:01:16;7.30;99.90
9103;DHT22;4587;51.434;6.788;2023-02-20T07:03:42;7.30;99.90
9103;DHT22;4587;51.434;6.788;2023-02-20T07:06:09;7.40;99.90
9103;DHT22;4587;51.434;6.788;2023-02-20T07:08:36;7.50;99.90
9103;DHT22;4587;51.434;6.788;2023-02-20T07:11:01;7.40;99.90
9103;DHT22;4587;51.434;6.788;2023-02-20T07:13:27;7.40;99.90
9103;DHT22;4587;51.434;6.788;2023-02-20T07:15:52;7.40;99.90
9103;DHT22;4587;51.434;6.788;2023-02-20T07:18:18;7.50;99.90
9103;DHT22;4587;51.434;6.788;2023-02-20T07:20:46;7.50;99.90
9103;DHT22;4587;51.434;6.788;2023-02-20T07:23:11;7.50;99.90
9103;DHT22;4587;51.434;6.788;2023-02-20T07:25:37;7.50;99.90
9103;DHT22;4587;51.434;6.788;2023-02-20T07:28:03;7.50;99.90
9103;DHT22;4587;51.434;6.788;2023-02-20T07:30:28;7.50;99.90
9103;DHT22;4587;51.434;6.788;2023-02-20T07:32:54;7.50;99.90
9103;DHT22;4587;51.434;6.788;2023-02-20T07:35:19;7.60;99.90
9103;DHT22;4587;51.434;6.788;2023-02-20T07:37:45;7.60;99.90
9103;DHT22;4587;51.434;6.788;2023-02-20T07:40:11;7.70;99.90
9103;DHT22;4587;51.434;6.788;2023-02-20T07:42:37;7.70;99.90
9103;DHT22;4587;51.434;6.788;2023-02-20T07:45:02;7.70;99.90
9103;DHT22;4587;51.434;6.788;2023-02-20T07:47:29;7.70;99.90
9103;DHT22;4587;51.434;6.788;2023-02-20T07:49:55;7.70;99.90
9103;DHT22;4587;51.434;6.788;2023-02-20T07:52:20;7.70;99.90
9103;DHT22;4587;51.434;6.788;2023-02-20T07:54:46;7.80;99.90
9103;DHT22;4587;51.434;6.788;2023-02-20T07:57:11;7.80;99.90
9103;DHT22;4587;51.434;6.788;2023-02-20T07:59:39;7.90;99.90
9103;DHT22;4587;51.434;6.788;2023-02-20T08:02:05;7.90;99.90
9103;DHT22;4587;51.434;6.788;2023-02-20T08:04:31;7.90;99.90
9103;DHT22;4587;51.434;6.788;2023-02-20T08:06:57;8.00;99.90
9103;DHT22;4587;51.434;6.788;2023-02-20T08:09:22;8.10;99.90
9103;DHT22;4587;51.434;6.788;2023-02-20T08:11:48;8.10;99.90
9103;DHT22;4587;51.434;6.788;2023-02-20T08:14:14;8.10;99.90
9103;DHT22;4587;51.434;6.788;2023-02-20T08:16:40;8.10;99.90
9103;DHT22;4587;51.434;6.788;2023-02-20T08:19:05;8.20;99.90
9103;DHT22;4587;51.434;6.788;2023-02-20T08:21:31;8.20;99.90
9103;DHT22;4587;51.434;6.788;2023-02-20T08:23:57;8.30;99.90
9103;DHT22;4587;51.434;6.788;2023-02-20T08:26:22;8.30;99.90
9103;DHT22;4587;51.434;6.788;2023-02-20T08:28:49;8.30;99.90
9103;DHT22;4587;51.434;6.788;2023-02-20T08:31:15;8.40;99.90
9103;DHT22;4587;51.434;6.788;2023-02-20T08:33:40;8.50;99.90
9103;DHT22;4587;51.434;6.788;2023-02-20T08:36:06;8.50;99.90
9103;DHT22;4587;51.434;6.788;2023-02-20T08:38:36;8.50;99.90
9103;DHT22;4587;51.434;6.788;2023-02-20T08:41:04;8.50;99.90
9103;DHT22;4587;51.434;6.788;2023-02-20T08:43:32;8.60;99.90
9103;DHT22;4587;51.434;6.788;2023-02-20T08:45:57;8.60;99.90
9103;DHT22;4587;51.434;6.788;2023-02-20T08:48:23;8.60;99.90
9103;DHT22;4587;51.434;6.788;2023-02-20T08:50:49;8.60;99.90
9103;DHT22;4587;51.434;6.788;2023-02-20T08:53:14;8.50;99.90
9103;DHT22;4587;51.434;6.788;2023-02-20T08:55:40;8.50;99.90
9103;DHT22;4587;51.434;6.788;2023-02-20T08:58:06;8.60;99.90
9103;DHT22;4587;51.434;6.788;2023-02-20T09:00:31;8.60;99.90
9103;DHT22;4587;51.434;6.788;2023-02-20T09:02:57;8.60;99.90
9103;DHT22;4587;51.434;6.788;2023-02-20T09:05:24;8.70;99.90
9103;DHT22;4587;51.434;6.788;2023-02-20T09:07:50;8.60;99.90
9103;DHT22;4587;51.434;6.788;2023-02-20T09:10:17;8.70;99.90
9103;DHT22;4587;51.434;6.788;2023-02-20T09:12:43;8.60;99.90
9103;DHT22;4587;51.434;6.788;2023-02-20T09:15:09;8.60;99.90
9103;DHT22;4587;51.434;6.788;2023-02-20T09:17:35;8.60;99.90
9103;DHT22;4587;51.434;6.788;2023-02-20T09:20:00;8.80;99.90
9103;DHT22;4587;51.434;6.788;2023-02-20T09:22:26;8.80;99.90
9103;DHT22;4587;51.434;6.788;2023-02-20T09:24:53;8.80;99.90
9103;DHT22;4587;51.434;6.788;2023-02-20T09:27:19;8.80;99.90
9103;DHT22;4587;51.434;6.788;2023-02-20T09:29:45;8.80;99.90
9103;DHT22;4587;51.434;6.788;2023-02-20T09:32:12;8.80;99.90
9103;DHT22;4587;51.434;6.788;2023-02-20T09:34:38;8.80;99.90
9103;DHT22;4587;51.434;6.788;2023-02-20T09:37:03;8.80;99.90
9103;DHT22;4587;51.434;6.788;2023-02-20T09:39:30;8.80;99.90
9103;DHT22;4587;51.434;6.788;2023-02-20T09:47:37;8.90;99.90
9103;DHT22;4587;51.434;6.788;2023-02-20T09:50:11;9.00;99.90
9103;DHT22;4587;51.434;6.788;2023-02-20T09:52:39;9.10;99.90
9103;DHT22;4587;51.434;6.788;2023-02-20T09:55:11;9.10;99.90
9103;DHT22;4587;51.434;6.788;2023-02-20T09:57:39;9.10;99.90
9103;DHT22;4587;51.434;6.788;2023-02-20T10:00:12;9.00;99.90
9103;DHT22;4587;51.434;6.788;2023-02-20T10:02:43;9.00;99.90
9103;DHT22;4587;51.434;6.788;2023-02-20T10:05:23;9.00;99.90
9103;DHT22;4587;51.434;6.788;2023-02-20T10:07:51;9.10;99.90
9103;DHT22;4587;51.434;6.788;2023-02-20T10:10:24;9.10;99.90
9103;DHT22;4587;51.434;6.788;2023-02-20T10:13:06;9.20;99.90
9103;DHT22;4587;51.434;6.788;2023-02-20T10:24:17;9.10;99.90
9103;DHT22;4587;51.434;6.788;2023-02-20T10:26:48;9.10;99.90
9103;DHT22;4587;51.434;6.788;2023-02-20T10:29:19;9.10;99.90
9103;DHT22;4587;51.434;6.788;2023-02-20T10:32:02;9.20;99.90
9103;DHT22;4587;51.434;6.788;2023-02-20T10:34:35;9.40;99.90
9103;DHT22;4587;51.434;6.788;2023-02-20T10:37:15;9.40;99.90
9103;DHT22;4587;51.434;6.788;2023-02-20T10:39:49;9.50;99.90
9103;DHT22;4587;51.434;6.788;2023-02-20T10:42:23;9.50;99.90
9103;DHT22;4587;51.434;6.788;2023-02-20T10:47:31;9.50;99.90
9103;DHT22;4587;51.434;6.788;2023-02-20T10:53:03;9.60;99.90
9103;DHT22;4587;51.434;6.788;2023-02-20T10:55:41;9.60;99.90
9103;DHT22;4587;51.434;6.788;2023-02-20T10:58:18;9.70;99.90
9103;DHT22;4587;51.434;6.788;2023-02-20T11:00:50;9.70;99.90
9103;DHT22;4587;51.434;6.788;2023-02-20T11:03:23;9.80;99.90
9103;DHT22;4587;51.434;6.788;2023-02-20T11:05:54;9.80;99.90
9103;DHT22;4587;51.434;6.788;2023-02-20T11:08:21;9.80;99.90
9103;DHT22;4587;51.434;6.788;2023-02-20T11:10:48;9.80;99.90
9103;DHT22;4587;51.434;6.788;2023-02-20T11:13:19;9.80;99.90
9103;DHT22;4587;51.434;6.788;2023-02-20T11:15:49;9.70;99.90
9103;DHT22;4587;51.434;6.788;2023-02-20T11:18:29;9.70;99.90
9103;DHT22;4587;51.434;6.788;2023-02-20T11:20:56;9.60;99.90
9103;DHT22;4587;51.434;6.788;2023-02-20T11:26:24;9.60;99.90
9103;DHT22;4587;51.434;6.788;2023-02-20T11:28:56;9.60;99.90
9103;DHT22;4587;51.434;6.788;2023-02-20T11:31:23;9.70;99.90
9103;DHT22;4587;51.434;6.788;2023-02-20T11:33:49;9.60;99.90
9103;DHT22;4587;51.434;6.788;2023-02-20T11:36:55;9.60;99.90
9103;DHT22;4587;51.434;6.788;2023-02-20T11:39:27;9.60;99.90
9103;DHT22;4587;51.434;6.788;2023-02-20T11:42:17;9.70;99.90
9103;DHT22;4587;51.434;6.788;2023-02-20T11:44:44;9.60;99.90
9103;DHT22;4587;51.434;6.788;2023-02-20T11:47:24;9.50;99.90
9103;DHT22;4587;51.434;6.788;2023-02-20T11:52:34;9.60;99.90
9103;DHT22;4587;51.434;6.788;2023-02-20T11:55:19;9.70;99.90
9103;DHT22;4587;51.434;6.788;2023-02-20T11:57:46;9.70;99.90
9103;DHT22;4587;51.434;6.788;2023-02-20T12:00:20;9.70;99.90
9103;DHT22;4587;51.434;6.788;2023-02-20T12:05:18;9.60;99.90
9103;DHT22;4587;51.434;6.788;2023-02-20T12:12:44;9.60;99.90
9103;DHT22;4587;51.434;6.788;2023-02-20T12:15:15;9.70;99.90
9103;DHT22;4587;51.434;6.788;2023-02-20T12:20:27;9.60;99.90
9103;DHT22;4587;51.434;6.788;2023-02-20T12:22:59;9.60;99.90
9103;DHT22;4587;51.434;6.788;2023-02-20T12:28:16;9.60;99.90
9103;DHT22;4587;51.434;6.788;2023-02-20T12:38:46;9.80;99.90
9103;DHT22;4587;51.434;6.788;2023-02-20T12:47:15;9.70;99.90
9103;DHT22;4587;51.434;6.788;2023-02-20T13:01:00;9.80;99.90
9103;DHT22;4587;51.434;6.788;2023-02-20T13:09:17;9.90;99.90
9103;DHT22;4587;51.434;6.788;2023-02-20T13:11:43;9.90;99.90
9103;DHT22;4587;51.434;6.788;2023-02-20T13:19:25;9.90;99.90
9103;DHT22;4587;51.434;6.788;2023-02-20T13:21:54;9.90;99.90
9103;DHT22;4587;51.434;6.788;2023-02-20T13:26:51;9.90;99.90
9103;DHT22;4587;51.434;6.788;2023-02-20T13:29:19;10.00;99.90
9103;DHT22;4587;51.434;6.788;2023-02-20T13:34:25;10.00;99.90
9103;DHT22;4587;51.434;6.788;2023-02-20T13:36:51;10.00;99.90
9103;DHT22;4587;51.434;6.788;2023-02-20T13:42:28;9.90;99.90
9103;DHT22;4587;51.434;6.788;2023-02-20T13:44:54;9.90;99.90
9103;DHT22;4587;51.434;6.788;2023-02-20T13:47:34;9.90;99.90
9103;DHT22;4587;51.434;6.788;2023-02-20T13:50:27;9.80;99.90
9103;DHT22;4587;51.434;6.788;2023-02-20T13:52:53;9.90;99.90
9103;DHT22;4587;51.434;6.788;2023-02-20T13:55:24;9.90;99.90
9103;DHT22;4587;51.434;6.788;2023-02-20T13:57:56;9.90;99.90
9103;DHT22;4587;51.434;6.788;2023-02-20T14:00:28;9.90;99.90
9103;DHT22;4587;51.434;6.788;2023-02-20T14:02:56;9.80;99.90
9103;DHT22;4587;51.434;6.788;2023-02-20T14:05:28;9.80;99.90
9103;DHT22;4587;51.434;6.788;2023-02-20T14:07:55;9.80;99.90
9103;DHT22;4587;51.434;6.788;2023-02-20T14:13:02;9.80;99.90
9103;DHT22;4587;51.434;6.788;2023-02-20T14:15:30;9.80;99.90
9103;DHT22;4587;51.434;6.788;2023-02-20T14:17:57;9.90;99.90
9103;DHT22;4587;51.434;6.788;2023-02-20T14:20:32;9.80;99.90
9103;DHT22;4587;51.434;6.788;2023-02-20T14:23:18;9.80;99.90
9103;DHT22;4587;51.434;6.788;2023-02-20T14:25:58;9.70;99.90
9103;DHT22;4587;51.434;6.788;2023-02-20T14:28:24;9.70;99.90
9103;DHT22;4587;51.434;6.788;2023-02-20T14:31:23;9.60;99.90
9103;DHT22;4587;51.434;6.788;2023-02-20T14:33:52;9.70;99.90
9103;DHT22;4587;51.434;6.788;2023-02-20T14:37:02;9.70;99.90
9103;DHT22;4587;51.434;6.788;2023-02-20T14:42:22;9.70;99.90
9103;DHT22;4587;51.434;6.788;2023-02-20T14:44:53;9.70;99.90
9103;DHT22;4587;51.434;6.788;2023-02-20T14:47:20;9.70;99.90
9103;DHT22;4587;51.434;6.788;2023-02-20T14:49:46;9.70;99.90
9103;DHT22;4587;51.434;6.788;2023-02-20T14:52:14;9.70;99.90
9103;DHT22;4587;51.434;6.788;2023-02-20T14:54:42;9.70;99.90
9103;DHT22;4587;51.434;6.788;2023-02-20T14:57:12;9.60;99.90
9103;DHT22;4587;51.434;6.788;2023-02-20T14:59:39;9.60;99.90
9103;DHT22;4587;51.434;6.788;2023-02-20T15:02:21;9.60;99.90
9103;DHT22;4587;51.434;6.788;2023-02-20T15:04:53;9.60;99.90
9103;DHT22;4587;51.434;6.788;2023-02-20T15:07:22;9.70;99.90
9103;DHT22;4587;51.434;6.788;2023-02-20T15:09:50;9.80;99.90
9103;DHT22;4587;51.434;6.788;2023-02-20T15:14:57;9.80;99.90
9103;DHT22;4587;51.434;6.788;2023-02-20T15:17:28;9.80;99.90
9103;DHT22;4587;51.434;6.788;2023-02-20T15:19:55;9.70;99.90
9103;DHT22;4587;51.434;6.788;2023-02-20T15:24:52;9.80;99.90
9103;DHT22;4587;51.434;6.788;2023-02-20T15:27:20;9.80;99.90
9103;DHT22;4587;51.434;6.788;2023-02-20T15:30:16;9.60;99.90
9103;DHT22;4587;51.434;6.788;2023-02-20T15:32:49;9.70;99.90
9103;DHT22;4587;51.434;6.788;2023-02-20T15:35:17;9.60;99.90
9103;DHT22;4587;51.434;6.788;2023-02-20T15:37:44;9.70;99.90
9103;DHT22;4587;51.434;6.788;2023-02-20T15:40:26;9.70;99.90
9103;DHT22;4587;51.434;6.788;2023-02-20T15:42:52;9.70;99.90
9103;DHT22;4587;51.434;6.788;2023-02-20T15:45:28;9.70;99.90
9103;DHT22;4587;51.434;6.788;2023-02-20T15:47:55;9.80;99.90
9103;DHT22;4587;51.434;6.788;2023-02-20T15:50:21;9.80;99.90
9103;DHT22;4587;51.434;6.788;2023-02-20T15:52:47;9.80;99.90
9103;DHT22;4587;51.434;6.788;2023-02-20T15:55:15;9.90;99.90
9103;DHT22;4587;51.434;6.788;2023-02-20T15:57:53;9.90;99.90
9103;DHT22;4587;51.434;6.788;2023-02-20T16:00:26;9.90;99.90
9103;DHT22;4587;51.434;6.788;2023-02-20T16:02:52;9.90;99.90
9103;DHT22;4587;51.434;6.788;2023-02-20T16:05:19;9.80;99.90
9103;DHT22;4587;51.434;6.788;2023-02-20T16:07:44;9.80;99.90
9103;DHT22;4587;51.434;6.788;2023-02-20T16:10:14;9.70;99.90
9103;DHT22;4587;51.434;6.788;2023-02-20T16:12:39;9.70;99.90
9103;DHT22;4587;51.434;6.788;2023-02-20T16:15:05;9.60;99.90
9103;DHT22;4587;51.434;6.788;2023-02-20T16:17:33;9.70;99.90
9103;DHT22;4587;51.434;6.788;2023-02-20T16:19:59;9.60;99.90
9103;DHT22;4587;51.434;6.788;2023-02-20T16:22:25;9.60;99.90
9103;DHT22;4587;51.434;6.788;2023-02-20T16:24:50;9.70;99.90
9103;DHT22;4587;51.434;6.788;2023-02-20T16:27:21;9.70;99.90
9103;DHT22;4587;51.434;6.788;2023-02-20T16:29:48;9.80;99.90
9103;DHT22;4587;51.434;6.788;2023-02-20T16:34:41;9.80;99.90
9103;DHT22;4587;51.434;6.788;2023-02-20T16:37:09;9.70;99.90
9103;DHT22;4587;51.434;6.788;2023-02-20T16:39:35;9.70;99.90
9103;DHT22;4587;51.434;6.788;2023-02-20T16:42:05;9.70;99.90
9103;DHT22;4587;51.434;6.788;2023-02-20T16:44:43;9.70;99.90
9103;DHT22;4587;51.434;6.788;2023-02-20T16:47:17;9.70;99.90
9103;DHT22;4587;51.434;6.788;2023-02-20T16:49:42;9.70;99.90
9103;DHT22;4587;51.434;6.788;2023-02-20T16:52:37;9.80;99.90
9103;DHT22;4587;51.434;6.788;2023-02-20T16:55:27;9.80;99.90
9103;DHT22;4587;51.434;6.788;2023-02-20T16:57:51;9.90;99.90
9103;DHT22;4587;51.434;6.788;2023-02-20T17:00:23;9.80;99.90
9103;DHT22;4587;51.434;6.788;2023-02-20T17:02:50;9.60;99.90
9103;DHT22;4587;51.434;6.788;2023-02-20T17:05:21;9.60;99.90
9103;DHT22;4587;51.434;6.788;2023-02-20T17:07:47;9.60;99.90
9103;DHT22;4587;51.434;6.788;2023-02-20T17:10:13;9.70;99.90
9103;DHT22;4587;51.434;6.788;2023-02-20T17:12:39;9.60;99.90
9103;DHT22;4587;51.434;6.788;2023-02-20T17:15:06;9.60;99.90
9103;DHT22;4587;51.434;6.788;2023-02-20T17:17:33;9.60;99.90
9103;DHT22;4587;51.434;6.788;2023-02-20T17:19:59;9.70;99.90
9103;DHT22;4587;51.434;6.788;2023-02-20T17:22:26;9.70;99.90
9103;DHT22;4587;51.434;6.788;2023-02-20T17:24:52;9.80;99.90
9103;DHT22;4587;51.434;6.788;2023-02-20T17:27:19;9.80;99.90
9103;DHT22;4587;51.434;6.788;2023-02-20T17:29:45;9.80;99.90
9103;DHT22;4587;51.434;6.788;2023-02-20T17:32:11;9.70;99.90
9103;DHT22;4587;51.434;6.788;2023-02-20T17:34:37;9.70;99.90
9103;DHT22;4587;51.434;6.788;2023-02-20T17:37:05;9.70;99.90
9103;DHT22;4587;51.434;6.788;2023-02-20T17:39:31;9.70;99.90
9103;DHT22;4587;51.434;6.788;2023-02-20T17:41:56;9.90;99.90
9103;DHT22;4587;51.434;6.788;2023-02-20T17:44:27;9.80;99.90
9103;DHT22;4587;51.434;6.788;2023-02-20T17:46:56;9.80;99.90
9103;DHT22;4587;51.434;6.788;2023-02-20T17:49:23;9.80;99.90
9103;DHT22;4587;51.434;6.788;2023-02-20T17:51:51;9.80;99.90
9103;DHT22;4587;51.434;6.788;2023-02-20T17:54:19;9.80;99.90
9103;DHT22;4587;51.434;6.788;2023-02-20T17:56:48;9.70;99.90
9103;DHT22;4587;51.434;6.788;2023-02-20T17:59:14;9.70;99.90
9103;DHT22;4587;51.434;6.788;2023-02-20T18:01:41;9.70;99.90
9103;DHT22;4587;51.434;6.788;2023-02-20T18:04:07;9.70;99.90
9103;DHT22;4587;51.434;6.788;2023-02-20T18:06:34;9.70;99.90
9103;DHT22;4587;51.434;6.788;2023-02-20T18:09:00;9.70;99.90
9103;DHT22;4587;51.434;6.788;2023-02-20T18:11:26;9.90;99.90
9103;DHT22;4587;51.434;6.788;2023-02-20T18:13:53;9.80;99.90
9103;DHT22;4587;51.434;6.788;2023-02-20T18:16:19;9.80;99.90
9103;DHT22;4587;51.434;6.788;2023-02-20T18:18:44;9.90;99.90
9103;DHT22;4587;51.434;6.788;2023-02-20T18:21:19;9.80;99.90
9103;DHT22;4587;51.434;6.788;2023-02-20T18:23:45;9.90;99.90
9103;DHT22;4587;51.434;6.788;2023-02-20T18:26:11;9.80;99.90
9103;DHT22;4587;51.434;6.788;2023-02-20T18:28:37;9.80;99.90
9103;DHT22;4587;51.434;6.788;2023-02-20T18:31:03;9.80;99.90
9103;DHT22;4587;51.434;6.788;2023-02-20T18:33:28;9.80;99.90
9103;DHT22;4587;51.434;6.788;2023-02-20T18:35:54;9.90;99.90